Washington, DC (20038)

7:38 PM EDT on July 01, 2015 (GMT -0400)
Logan Circle | | Change Station
CLOSE
Current Station
Personal Weather Station
Location: Washington, DC
Elevation: 108 ft
Nearby Weather Stations

Elev 108 ft 38.91 °N, 77.03 °W | Updated 7 seconds ago

Mostly Cloudy
Mostly Cloudy
81.5 °F
Feels Like 85 °F
N
0.0
Wind Variable Wind from North
Gusts 0.0 mph

Today
High -- | Low -- °F
--% Chance of Precip.
Yesterday
High -- | Low -- °F
Precip. -- in
5:46 AM 8:37 PM
Full, 100% visible
Pressure 29.84 in
Visibility 10.0 miles
Clouds Mostly Cloudy 4900 ft
Mostly Cloudy 9000 ft
Overcast 25000 ft
Heat Index 85 °F
Dew Point 69 °F
Humidity 65%
Rainfall 0.91 in
Snow Depth Not available.
UV 0 out of 12
Pollen 4.50 out of 12
Air Quality Not available.
Flu Activity Not available.
SPECI KDCA 012331Z 12004KT 10SM -RA BKN049CB BKN090 OVC250 27/22 A2984 RMK AO2 RAB21 CB SE-S-W MOV SE P0000

More Conditions Fewer Conditions

Pressure 29.84 in
Visibility 10.0 miles
Clouds Mostly Cloudy 4900 ft
Mostly Cloudy 9000 ft
Overcast 25000 ft
Heat Index 85 °F
Dew Point 69 °F
Humidity 65%
Rainfall 0.91 in
Snow Depth Not available.
UV 0 out of 12
Pollen 4.50 out of 12
Air Quality Not available.
Flu Activity Not available.
SPECI KDCA 012331Z 12004KT 10SM -RA BKN049CB BKN090 OVC250 27/22 A2984 RMK AO2 RAB21 CB SE-S-W MOV SE P0000

More Conditions Fewer Conditions

10-Day Weather Forecast

×

Almanac

Astronomy

Jul. 01, 2015 Rise Set
Actual Time
Civil Twilight
Nautical Twilight
Astronomical Twilight
Moon
Length of Visible Light
Length of Day
Tomorrow will be .
, % of the Moon is Illuminated

Today's Extremes

State Highs State Lows

Community

WunderPhotos

Upload Photos

1,834,339 photos uploaded!

WunderBlogs® & News

Nearby

Air Quality

  Air Quality AQ Index Pollutant
Not available.

Snow Depth

Station Depth Elevation

Earthquake Activity

City Distance Mag. Time & Date
Minimum magnitude displayed is 2.5.

Coastal Water Temperatures

Place Temperature

Stations

Nearby Weather Stations

Station Location Temp. Windchill Dew Point Humidity Wind Precip. Elev Updated Type